Arboga, California
Current Conditions -  °F | °C
As of 3:53 PM on Saturday 25 Oct 2014 (Local Time) from KMYV Reporting Station
Broken Clouds Broken Clouds  
Wind Chill: 68°   Ceiling: 6500
Heat Index: 68°   Visibility: 10mi
Dew Point: 55°   Wind: 16mph
Humidity: 63%   Direction: 150°SSE
Pressure: 30.01"   Gusts: NA
Location:  39.0904°N, 121.552°W
Report Text: KMYV 252253Z AUTO 15014KT 10SM SCT045 BKN065 BKN090 20/13 A3001 RMK AO2 SLP165 T02000128 $
Loading
Personal Weather Stations






























Interactive Weather Map New forecast layout! Learn more

10-Day Weather Forecast

Advertisements
Track Severe Weather on mobile